Tuesday, January 23, 2018, 7:16 AM EST
Back to Local

KISP, Islip Long Island Mac Art

Location: Ronkonkoma, NY, United States Lat: 40.8
Local Time: 7:16 AM EST (12:16 GMT) Lon: -73.1
Time Zone: US/Eastern Elev: 98 ft

Show me the last for .
Show Decoded

2018-01-23 06:39 METAR KISP 231139Z 16011KT 7SM -RA SCT006 BKN022 OVC050 11/09 A2984 RMK AO2
                 RAB18 P0004 T01110094 =
2018-01-23 05:56 METAR KISP 231056Z 17012G17KT 10SM BKN030 BKN046 BKN140 OVC230 12/10 A2987 RMK
                 AO2 SLP115 T01170100 =
2018-01-23 05:46 METAR KISP 231046Z AUTO 16009KT 10SM SCT024 BKN035 BKN045 11/10 A2986 RMK AO2
                 T01110100 =
2018-01-23 04:56 METAR KISP 230956Z AUTO 17007KT 9SM SCT002 BKN027 10/09 A2989 RMK AO2 SLP122
                 T01000094 =
2018-01-23 04:50 METAR KISP 230950Z AUTO 16007KT 5SM BR SCT002 BKN027 09/09 A2988 RMK AO2 PRESFR
                 =
2018-01-23 04:46 METAR KISP 230946Z AUTO 16006KT 2SM BR BKN002 BKN027 09/08 A2989 RMK AO2 PRESFR
                 T00940083 =
2018-01-23 04:23 METAR KISP 230923Z AUTO 12003KT 1/2SM R06/2800V4500FT FG VV002 08/07 A2992 RMK
                 AO2 T00830072 =
2018-01-23 03:56 METAR KISP 230856Z AUTO 12003KT 1/4SM R06/2200V2600FT FG BKN002 OVC031 08/07
                 A2993 RMK AO2 SLP135 T00780072 58025 =
2018-01-23 03:47 METAR KISP 230847Z AUTO 12003KT 1/2SM R06/2200V2400FT FG VV002 08/07 A2994 RMK
                 AO2 T00780072 =
2018-01-23 03:35 METAR KISP 230835Z AUTO 10003KT 1/4SM R06/2000V2800FT FG VV002 08/07 A2995 RMK
                 AO2 T00780072 =
2018-01-23 02:56 METAR KISP 230756Z AUTO 09003KT 1/4SM R06/1200V1400FT FG VV002 08/07 A2997 RMK
                 AO2 SLP147 T00780072 =
2018-01-23 02:19 METAR KISP 230719Z AUTO 10005KT 1/4SM R06/1200V1400FT FG VV001 07/06 A2998 RMK
                 AO2 T00720061 =
2018-01-23 01:56 METAR KISP 230656Z AUTO 04003KT 1/4SM R06/1600V1800FT FG VV002 07/06 A3000 RMK
                 AO2 SLP158 T00670061 =
2018-01-23 01:51 METAR KISP 230651Z AUTO 00000KT 1/4SM R06/1600V1800FT FG VV002 07/06 A3001 RMK
                 AO2 =
2018-01-23 01:37 METAR KISP 230637Z AUTO 00000KT 1/4SM R06/2000VP6000FT FG BKN002 OVC007 07/06
                 A3000 RMK AO2 T00670061 =
2018-01-23 01:27 METAR KISP 230627Z AUTO 06003KT 1 3/4SM R06/4000VP6000FT BR BKN002 OVC007 07/07
                 A3001 RMK AO2 T00670067 =
2018-01-23 01:21 METAR KISP 230621Z AUTO 00000KT 2 1/2SM R06/4000V5000FT BR SCT002 OVC007 07/06
                 A3002 RMK AO2 T00670061 =
2018-01-23 01:09 METAR KISP 230609Z AUTO 08004KT 1SM R06/2400V3000FT BR BKN007 OVC011 06/06 A3002
                 RMK AO2 PRESFR T00610056 =
2018-01-23 01:03 METAR KISP 230603Z AUTO 07003KT 1/2SM R06/2200V2600FT FG VV010 06/06 A3003 RMK
                 AO2 T00610056 =
2018-01-23 00:56 METAR KISP 230556Z AUTO 00000KT 1/4SM R06/1800V2400FT FG VV008 06/06 A3004 RMK
                 AO2 SLP173 T00610061 10067 20056 58018 =
2018-01-23 00:49 METAR KISP 230549Z AUTO 00000KT 1/4SM R06/1400V2000FT FG VV007 06/06 A3005 RMK
                 AO2 T00610061 =
2018-01-23 00:42 METAR KISP 230542Z AUTO 00000KT 1/4SM R06/1200V1600FT FG VV004 06/06 A3005 RMK
                 AO2 T00610056 =
2018-01-22 23:56 METAR KISP 230456Z 04003KT 1/16SM R06/1000FT FG VV001 06/06 A3007 RMK AO2 SLP184
                 LAST T00610056 401170050 =
2018-01-22 23:25 METAR KISP 230425Z 02003KT 1/16SM R06/1200FT FG VV001 06/05 A3007 RMK AO2
                 T00610050 =
2018-01-22 22:56 METAR KISP 230356Z 07003KT 1/16SM R06/1200V1400FT FG VV002 06/06 A3007 RMK AO2
                 SFC VIS 1/8 SLP184 T00610056 =
2018-01-22 21:56 METAR KISP 230256Z 08004KT 1/8SM R06/1800V2200FT FG VV002 06/05 A3009 RMK AO2
                 SLP191 T00610050 58019 =
2018-01-22 20:56 METAR KISP 230156Z 06005KT 1/4SM R06/4000V5000FT FG OVC002 06/05 A3013 RMK AO2
                 SFC VIS 1/2 SLP202 T00610050 =
2018-01-22 19:56 METAR KISP 230056Z 07004KT 3/4SM R06/5000VP6000FT BR OVC002 06/05 A3015 RMK AO2
                 SLP208 T00610050 =
2018-01-22 18:56 METAR KISP 222356Z 09007KT 2SM BR OVC003 07/06 A3015 RMK AO2 SLP210 T00670056
                 10117 20067 50005 =
2018-01-22 18:47 METAR KISP 222347Z 08007KT 2SM BR OVC003 07/05 A3015 RMK AO2 T00670050 =
2018-01-22 17:56 METAR KISP 222256Z 08007KT 9SM BKN009 BKN070 OVC080 08/05 A3015 RMK AO2 SLP211
                 T00780050 =
2018-01-22 17:44 METAR KISP 222244Z 08008KT 10SM BKN009 BKN070 OVC080 08/05 A3015 RMK AO2
                 T00830050 =
2018-01-22 16:56 METAR KISP 222156Z 06004KT 10SM FEW060 BKN075 OVC100 09/06 A3014 RMK AO2 SLP207
                 T00890056 =
2018-01-22 15:56 METAR KISP 222056Z 06005KT 10SM BKN060 OVC100 10/06 A3014 RMK AO2 SLP206
                 T01000056 55004 =
2018-01-22 14:56 METAR KISP 221956Z 03009KT 10SM BKN048 BKN100 OVC250 10/06 A3014 RMK AO2 SLP205
                 T01000056 =
2018-01-22 13:56 METAR KISP 221856Z 03003KT 10SM OVC048 12/06 A3014 RMK AO2 SLP208 T01170056 =
2018-01-22 12:56 METAR KISP 221756Z 04004KT 10SM FEW039 BKN100 OVC250 11/06 A3015 RMK AO2 SLP210
                 T01110056 10111 20061 58018 =
2018-01-22 11:56 METAR KISP 221656Z 35004KT 10SM FEW035 OVC100 10/06 A3017 RMK AO2 SLP217
                 T01000056 =
2018-01-22 10:56 METAR KISP 221556Z 03003KT 10SM FEW035 OVC100 09/06 A3019 RMK AO2 SLP222
                 T00940056 =
2018-01-22 09:56 METAR KISP 221456Z 02003KT 10SM FEW035 FEW070 OVC100 08/06 A3020 RMK AO2 SLP228
                 T00830056 51016 $ =
2018-01-22 08:56 METAR KISP 221356Z 00000KT 9SM FEW055 OVC095 07/06 A3019 RMK AO2 SLP225
                 T00720056 $ =
2018-01-22 07:56 METAR KISP 221256Z 20005KT 10SM FEW037 BKN055 OVC095 07/05 A3017 RMK AO2 SLP217
                 T00720050 $ =

Support USWX by starting your Amazon purchase here.